Terminal Aerodrome Forecast
Issued by NWS

Home | Current Version | Previous Version | Text Only | Print | Product List | Glossary On
Versions: 1 2 3 4 5 6 7 8 9 10 11 12 13 14 15 16 17 18
277
FTUS43 KEAX 240520
TAFMKC
TAF
KMKC 240520Z 2406/2506 15005KT P6SM SKC
     FM240900 VRB03KT 6SM BR SKC
      TEMPO 2410/2412 5SM BR
     FM241300 14007KT P6SM SKC
     FM241800 13011KT P6SM SCT100 SCT200=

USA.gov is the U.S. government's official web portal to all federal, state and local government web resources and services.